createdAt,value
2018-10-07T00:01:31.457Z,100782.63
2018-10-07T00:04:37.002Z,100783.86
2018-10-07T00:07:42.397Z,100804.02
2018-10-07T00:10:47.795Z,100808.75
2018-10-07T00:13:53.231Z,100833.92
2018-10-07T00:16:58.627Z,100845.71
2018-10-07T00:20:04.418Z,100857.34
2018-10-07T00:23:09.930Z,100868.59
2018-10-07T00:26:15.344Z,100883.57
2018-10-07T00:29:20.852Z,100896.11
2018-10-07T00:32:26.299Z,100910.70
2018-10-07T00:35:31.782Z,100915.74
2018-10-07T00:38:37.166Z,100930.33
2018-10-07T00:41:42.583Z,100936.52
2018-10-07T00:44:48.378Z,100929.03
2018-10-07T00:47:54.203Z,100933.55
2018-10-07T00:50:59.971Z,100936.44
2018-10-07T00:54:05.573Z,100947.27
2018-10-07T00:57:11.003Z,100955.78
2018-10-07T01:00:16.462Z,100962.70
2018-10-07T01:03:21.858Z,100958.72
2018-10-07T01:06:27.263Z,100958.00
2018-10-07T01:09:32.662Z,100969.55
2018-10-07T01:12:38.066Z,100976.09
2018-10-07T01:15:43.466Z,100974.66
2018-10-07T01:18:48.858Z,100986.76
2018-10-07T01:21:54.269Z,100989.59
2018-10-07T01:24:59.770Z,100995.06
2018-10-07T01:28:05.153Z,100993.73
2018-10-07T01:31:10.559Z,100982.43
2018-10-07T01:34:16.003Z,101005.65
2018-10-07T01:37:21.414Z,101023.67
2018-10-07T01:40:26.842Z,101036.01
2018-10-07T01:43:34.451Z,101045.14
2018-10-07T01:46:39.865Z,101048.63
2018-10-07T01:49:45.241Z,101076.69
2018-10-07T01:52:52.763Z,101087.20
2018-10-07T01:55:58.149Z,101095.34
2018-10-07T01:59:03.522Z,101101.11
2018-10-07T02:02:09.030Z,101107.38
2018-10-07T02:05:14.624Z,101112.19
2018-10-07T02:08:20.146Z,101120.98
2018-10-07T02:11:25.538Z,101132.97
2018-10-07T02:14:31.096Z,101132.28
2018-10-07T02:17:36.518Z,101138.59
2018-10-07T02:20:41.917Z,101144.11
2018-10-07T02:23:47.578Z,101156.61
2018-10-07T02:26:53.539Z,101155.32
2018-10-07T02:29:58.906Z,101161.18
2018-10-07T02:33:04.427Z,101160.34
2018-10-07T02:36:09.855Z,101162.48
2018-10-07T02:39:15.314Z,101179.45
2018-10-07T02:42:20.771Z,101191.41
2018-10-07T02:45:26.282Z,101204.22
2018-10-07T02:48:31.691Z,101201.80
2018-10-07T02:51:37.967Z,101210.84
2018-10-07T02:54:43.561Z,101221.89
2018-10-07T02:57:50.202Z,101226.45
2018-10-07T03:00:55.979Z,101229.69
2018-10-07T03:04:01.503Z,101239.22
2018-10-07T03:07:07.747Z,101242.90
2018-10-07T03:10:13.196Z,101260.41
2018-10-07T03:13:18.679Z,101267.23
2018-10-07T03:16:24.099Z,101277.27
2018-10-07T03:19:29.802Z,101283.43
2018-10-07T03:22:35.714Z,101293.49
2018-10-07T03:25:41.110Z,101296.94
2018-10-07T03:28:46.551Z,101297.42
2018-10-07T03:31:51.983Z,101305.02
2018-10-07T03:34:57.421Z,101315.88
2018-10-07T03:38:02.814Z,101302.62
2018-10-07T03:41:19.598Z,101304.54
2018-10-07T03:44:25.027Z,101307.22
2018-10-07T03:47:30.702Z,101315.98
2018-10-07T03:50:36.570Z,101310.36
2018-10-07T03:53:42.034Z,101326.96
2018-10-07T03:56:47.557Z,101336.49
2018-10-07T03:59:53.055Z,101339.44
2018-10-07T04:02:58.583Z,101342.27
2018-10-07T04:06:03.987Z,101349.84
2018-10-07T04:09:11.502Z,101334.92
2018-10-07T04:12:17.126Z,101336.49
2018-10-07T04:15:22.594Z,101341.59
2018-10-07T04:18:28.025Z,101353.86
2018-10-07T04:21:33.480Z,101353.41
2018-10-07T04:24:38.951Z,101357.72
2018-10-07T04:27:44.355Z,101369.34
2018-10-07T04:30:49.753Z,101368.45
2018-10-07T04:33:55.301Z,101371.52
2018-10-07T04:37:00.722Z,101381.77
2018-10-07T04:40:06.390Z,101389.45
2018-10-07T04:43:11.845Z,101404.23
2018-10-07T04:46:17.297Z,101409.81
2018-10-07T04:49:22.881Z,101415.14
2018-10-07T04:52:28.291Z,101429.55
2018-10-07T04:55:33.730Z,101423.95
2018-10-07T04:58:39.146Z,101426.52
2018-10-07T05:01:44.535Z,101433.89
2018-10-07T05:04:50.006Z,101439.93
2018-10-07T05:07:55.630Z,101450.68
2018-10-07T05:11:02.530Z,101459.47
2018-10-07T05:14:09.359Z,101454.37
2018-10-07T05:17:17.186Z,101448.94
2018-10-07T05:20:22.619Z,101456.64
2018-10-07T05:23:28.207Z,101454.40
2018-10-07T05:26:34.471Z,101460.22
2018-10-07T05:29:39.921Z,101464.70
2018-10-07T05:32:45.350Z,101476.36
2018-10-07T05:35:50.754Z,101480.50
2018-10-07T05:38:56.229Z,101489.94
2018-10-07T05:42:01.641Z,101498.77
2018-10-07T05:45:07.439Z,101507.69
2018-10-07T05:48:12.883Z,101514.64
2018-10-07T05:51:18.266Z,101519.05
2018-10-07T05:54:23.710Z,101526.55
2018-10-07T05:57:29.247Z,101529.56
2018-10-07T06:00:36.619Z,101540.41
2018-10-07T06:04:56.190Z,101548.67
2018-10-07T06:08:02.174Z,101557.98
2018-10-07T06:11:07.599Z,101561.78
2018-10-07T06:14:34.781Z,101569.02
2018-10-07T06:17:40.522Z,101572.37
2018-10-07T06:20:46.606Z,101574.72
2018-10-07T06:23:52.442Z,101580.44
2018-10-07T06:26:57.905Z,101589.08
2018-10-07T06:30:03.375Z,101593.31
2018-10-07T06:33:08.863Z,101593.80
2018-10-07T06:36:14.619Z,101590.05
2018-10-07T06:39:20.058Z,101598.95
2018-10-07T06:42:28.045Z,101609.52
2018-10-07T06:45:33.878Z,101620.86
2018-10-07T06:48:39.494Z,101616.45
2018-10-07T06:51:44.914Z,101622.97
2018-10-07T06:54:51.078Z,101633.92
2018-10-07T06:57:56.481Z,101639.02
2018-10-07T07:01:01.917Z,101652.11
2018-10-07T07:04:07.470Z,101648.25
2018-10-07T07:07:12.859Z,101653.90
2018-10-07T07:10:19.347Z,101661.86
2018-10-07T07:13:24.928Z,101660.98
2018-10-07T07:16:31.125Z,101662.77
2018-10-07T07:19:36.591Z,101665.97
2018-10-07T07:22:42.257Z,101675.27
2018-10-07T07:25:47.681Z,101687.22
2018-10-07T07:28:53.643Z,101689.75
2018-10-07T07:31:59.054Z,101692.35
2018-10-07T07:35:04.595Z,101698.88
2018-10-07T07:38:09.978Z,101702.22
2018-10-07T07:41:15.402Z,101708.00
2018-10-07T07:44:20.986Z,101714.17
2018-10-07T07:47:26.387Z,101720.45
2018-10-07T07:50:31.840Z,101724.64
2018-10-07T07:53:37.345Z,101727.91
2018-10-07T07:56:42.766Z,101735.00
2018-10-07T07:59:48.166Z,101733.44
2018-10-07T08:02:53.595Z,101752.28
2018-10-07T08:05:59.042Z,101753.13
2018-10-07T08:09:05.881Z,101754.25
2018-10-07T08:12:11.270Z,101764.64
2018-10-07T08:15:16.770Z,101774.84
2018-10-07T08:18:22.171Z,101777.27
2018-10-07T08:21:27.595Z,101785.46
2018-10-07T08:24:33.131Z,101791.56
2018-10-07T08:27:38.726Z,101802.03
2018-10-07T08:30:46.331Z,101805.20
2018-10-07T08:33:51.903Z,101799.84
2018-10-07T08:37:00.851Z,101811.22
2018-10-07T08:40:06.454Z,101805.93
2018-10-07T08:43:11.911Z,101820.31
2018-10-07T08:46:18.980Z,101828.66
2018-10-07T08:49:28.788Z,101830.36
2018-10-07T08:52:38.625Z,101837.09
2018-10-07T08:55:48.405Z,101841.52
2018-10-07T08:59:07.470Z,101840.45
2018-10-07T09:02:13.159Z,101848.45
2018-10-07T09:05:18.856Z,101852.37
2018-10-07T09:08:24.255Z,101847.03
2018-10-07T09:11:29.662Z,101859.69
2018-10-07T09:14:35.433Z,101865.03
2018-10-07T09:17:41.041Z,101877.08
2018-10-07T09:20:46.537Z,101878.22
2018-10-07T09:23:52.126Z,101878.47
2018-10-07T09:26:57.608Z,101880.25
2018-10-07T09:30:04.164Z,101886.89
2018-10-07T09:33:09.626Z,101887.53
2018-10-07T09:36:15.039Z,101885.75
2018-10-07T09:39:20.499Z,101890.62
2018-10-07T09:42:26.099Z,101892.88
2018-10-07T09:45:32.182Z,101888.42
2018-10-07T09:48:38.106Z,101895.79
2018-10-07T09:51:43.529Z,101886.36
2018-10-07T09:54:48.997Z,101885.13
2018-10-07T09:57:54.429Z,101884.09
2018-10-07T10:01:00.058Z,101886.77
2018-10-07T10:04:05.918Z,101888.03
2018-10-07T10:07:11.598Z,101893.97
2018-10-07T10:10:17.194Z,101892.66
2018-10-07T10:13:22.702Z,101903.17
2018-10-07T10:16:39.371Z,101904.37
2018-10-07T10:19:57.046Z,101903.49
2018-10-07T10:23:18.633Z,101902.59
2018-10-07T10:26:42.243Z,101914.50
2018-10-07T10:29:53.113Z,101916.52
2018-10-07T10:33:11.487Z,101923.02
2018-10-07T10:37:07.788Z,101913.86
2018-10-07T10:40:29.418Z,101906.64
2018-10-07T10:43:57.725Z,101896.48
2018-10-07T10:47:11.298Z,101901.20
2018-10-07T10:50:29.950Z,101907.40
2018-10-07T10:53:44.459Z,101904.22
2018-10-07T10:57:07.774Z,101905.35
2018-10-07T11:00:15.969Z,101903.96
2018-10-07T11:03:48.046Z,101906.91
2018-10-07T11:07:16.594Z,101911.46
2018-10-07T11:10:42.113Z,101920.78
2018-10-07T11:14:02.092Z,101916.29
2018-10-07T11:17:41.521Z,101919.95
2018-10-07T11:23:08.822Z,101919.03
2018-10-07T11:27:27.294Z,101935.47
2018-10-07T11:31:42.651Z,101935.88
2018-10-07T11:35:14.667Z,101938.02
2018-10-07T11:38:44.911Z,101947.97
2018-10-07T11:42:05.861Z,101941.48
2018-10-07T11:46:24.418Z,101934.42
2018-10-07T11:49:45.357Z,101934.23
2018-10-07T11:54:09.996Z,101940.88
2018-10-07T11:57:15.379Z,101945.50
2018-10-07T12:00:20.822Z,101951.30
2018-10-07T12:03:26.327Z,101948.31
2018-10-07T12:06:32.483Z,101953.21
2018-10-07T12:09:37.889Z,101968.53
2018-10-07T12:12:43.270Z,101962.84
2018-10-07T12:15:48.679Z,101966.81
2018-10-07T12:18:54.062Z,101973.83
2018-10-07T12:21:59.462Z,101970.56
2018-10-07T12:25:05.169Z,101975.98
2018-10-07T12:28:10.866Z,101973.05
2018-10-07T12:31:16.369Z,101979.58
2018-10-07T12:34:21.854Z,101985.20
2018-10-07T12:37:28.290Z,101992.99
2018-10-07T12:40:33.874Z,101994.33
2018-10-07T12:43:39.334Z,101990.36
2018-10-07T12:46:44.870Z,102001.13
2018-10-07T12:49:50.279Z,102003.28
2018-10-07T12:52:56.610Z,102010.00
2018-10-07T12:56:02.723Z,101997.16
2018-10-07T12:59:08.701Z,102000.52
2018-10-07T13:02:14.617Z,102008.27
2018-10-07T13:05:20.486Z,102017.88
2018-10-07T13:08:25.860Z,102014.80
2018-10-07T13:11:31.274Z,102016.95
2018-10-07T13:14:36.762Z,102026.59
2018-10-07T13:17:42.197Z,102026.30
2018-10-07T13:20:47.626Z,102027.20
2018-10-07T13:23:53.106Z,102026.47
2018-10-07T13:26:58.517Z,102035.14
2018-10-07T13:30:04.370Z,102032.09
2018-10-07T13:33:09.883Z,102046.33
2018-10-07T13:36:15.310Z,102043.34
2018-10-07T13:39:20.730Z,102051.08
2018-10-07T13:42:26.305Z,102054.42
2018-10-07T13:45:31.798Z,102046.47
2018-10-07T13:48:37.243Z,102040.50
2018-10-07T13:51:42.686Z,102040.98
2018-10-07T13:54:48.210Z,102046.14
2018-10-07T13:57:53.613Z,102035.86
2018-10-07T14:00:59.066Z,102034.77
2018-10-07T14:04:04.827Z,102041.48
2018-10-07T14:07:10.248Z,102046.80
2018-10-07T14:10:15.645Z,102041.91
2018-10-07T14:13:21.275Z,102035.91
2018-10-07T14:16:30.438Z,102044.11
2018-10-07T14:19:35.876Z,102047.92
2018-10-07T14:22:41.325Z,102054.91
2018-10-07T14:25:47.174Z,102043.87
2018-10-07T14:28:52.647Z,102049.06
2018-10-07T14:32:00.214Z,102044.22
2018-10-07T14:35:06.830Z,102045.17
2018-10-07T14:38:14.394Z,102055.41
2018-10-07T14:41:22.122Z,102049.08
2018-10-07T14:44:27.566Z,102049.32
2018-10-07T14:47:32.938Z,102053.38
2018-10-07T14:50:38.302Z,102050.00
2018-10-07T14:53:43.799Z,102052.59
2018-10-07T14:56:49.208Z,102052.59
2018-10-07T14:59:54.594Z,102058.09
2018-10-07T15:03:00.465Z,102062.77
2018-10-07T15:06:09.318Z,102068.17
2018-10-07T15:09:25.563Z,102068.36
2018-10-07T15:12:35.207Z,102065.67
2018-10-07T15:15:42.347Z,102070.11
2018-10-07T15:18:50.947Z,102068.80
2018-10-07T15:22:00.368Z,102068.45
2018-10-07T15:25:18.693Z,102071.28
2018-10-07T15:28:26.443Z,102072.59
2018-10-07T15:31:38.827Z,102073.38
2018-10-07T15:34:44.810Z,102071.81
2018-10-07T15:37:52.338Z,102076.45
2018-10-07T15:40:57.718Z,102075.59
2018-10-07T15:44:03.245Z,102075.14
2018-10-07T15:47:08.892Z,102078.33
2018-10-07T15:50:14.370Z,102085.19
2018-10-07T15:53:19.874Z,102089.66
2018-10-07T15:56:25.246Z,102098.65
2018-10-07T15:59:30.658Z,102110.12
2018-10-07T16:02:36.099Z,102104.91
2018-10-07T16:05:41.514Z,102110.23
2018-10-07T16:08:46.933Z,102110.61
2018-10-07T16:11:52.542Z,102114.87
2018-10-07T16:14:57.999Z,102124.08
2018-10-07T16:18:03.654Z,102125.66
2018-10-07T16:21:11.136Z,102121.94
2018-10-07T16:24:19.521Z,102125.67
2018-10-07T16:27:28.106Z,102130.11
2018-10-07T16:30:36.810Z,102135.02
2018-10-07T16:33:42.634Z,102130.23
2018-10-07T16:36:48.191Z,102132.56
2018-10-07T16:39:53.788Z,102128.77
2018-10-07T16:42:59.240Z,102128.35
2018-10-07T16:46:04.859Z,102133.25
2018-10-07T16:49:10.250Z,102129.33
2018-10-07T16:52:15.876Z,102130.74
2018-10-07T16:55:21.322Z,102138.80
2018-10-07T16:58:26.701Z,102138.02
2018-10-07T17:01:32.065Z,102133.08
2018-10-07T17:04:37.566Z,102145.36
2018-10-07T17:07:43.115Z,102144.18
2018-10-07T17:10:48.465Z,102148.05
2018-10-07T17:13:54.012Z,102149.70
2018-10-07T17:16:59.378Z,102157.38
2018-10-07T17:20:04.787Z,102162.39
2018-10-07T17:23:10.299Z,102163.57
2018-10-07T17:26:15.808Z,102168.77
2018-10-07T17:29:21.311Z,102169.31
2018-10-07T17:32:26.662Z,102170.89
2018-10-07T17:35:34.206Z,102176.11
2018-10-07T17:38:39.647Z,102174.00
2018-10-07T17:41:45.014Z,102175.62
2018-10-07T17:44:50.454Z,102181.76
2018-10-07T17:47:55.859Z,102177.50
2018-10-07T17:51:01.226Z,102183.14
2018-10-07T17:54:06.925Z,102188.48
2018-10-07T17:57:12.302Z,102193.00
2018-10-07T18:00:17.792Z,102191.83
2018-10-07T18:03:23.322Z,102195.75
2018-10-07T18:06:29.653Z,102199.36
2018-10-07T18:09:35.062Z,102205.63
2018-10-07T18:12:40.502Z,102195.30
2018-10-07T18:15:49.353Z,102202.63
2018-10-07T18:19:06.760Z,102212.34
2018-10-07T18:22:12.123Z,102219.12
2018-10-07T18:25:17.903Z,102226.95
2018-10-07T18:28:23.278Z,102221.77
2018-10-07T18:31:28.634Z,102232.23
2018-10-07T18:34:34.411Z,102230.66
2018-10-07T18:37:39.947Z,102234.64
2018-10-07T18:40:45.329Z,102221.56
2018-10-07T18:43:50.791Z,102224.16
2018-10-07T18:46:56.461Z,102229.38
2018-10-07T18:50:01.933Z,102222.33
2018-10-07T18:53:07.767Z,102227.68
2018-10-07T18:56:13.175Z,102234.64
2018-10-07T18:59:18.569Z,102233.07
2018-10-07T19:02:24.524Z,102238.52
2018-10-07T19:05:30.153Z,102232.80
2018-10-07T19:08:35.558Z,102239.28
2018-10-07T19:11:41.123Z,102237.16
2018-10-07T19:14:46.668Z,102244.02
2018-10-07T19:17:52.207Z,102241.44
2018-10-07T19:20:57.626Z,102246.84
2018-10-07T19:24:03.293Z,102253.51
2018-10-07T19:27:08.799Z,102256.34
2018-10-07T19:30:14.210Z,102261.38
2018-10-07T19:33:19.690Z,102259.59
2018-10-07T19:36:25.114Z,102254.23
2018-10-07T19:39:30.500Z,102254.30
2018-10-07T19:42:38.159Z,102260.06
2018-10-07T19:45:43.558Z,102255.23
2018-10-07T19:48:48.926Z,102253.45
2018-10-07T19:51:54.330Z,102257.73
2018-10-07T19:54:59.810Z,102271.28
2018-10-07T19:58:05.212Z,102262.88
2018-10-07T20:01:10.610Z,102267.50
2018-10-07T20:04:16.243Z,102260.99
2018-10-07T20:07:21.655Z,102268.03
2018-10-07T20:10:27.038Z,102267.41
2018-10-07T20:13:32.557Z,102274.31
2018-10-07T20:16:38.116Z,102269.88
2018-10-07T20:19:43.503Z,102268.75
2018-10-07T20:22:48.918Z,102268.63
2018-10-07T20:25:54.318Z,102265.28
2018-10-07T20:28:59.782Z,102258.80
2018-10-07T20:32:05.206Z,102259.58
2018-10-07T20:35:10.726Z,102264.36
2018-10-07T20:38:16.086Z,102251.48
2018-10-07T20:41:21.465Z,102244.77
2018-10-07T20:44:26.872Z,102239.95
2018-10-07T20:47:32.278Z,102234.69
2018-10-07T20:50:37.658Z,102241.55
2018-10-07T20:53:43.074Z,102243.71
2018-10-07T20:56:48.458Z,102234.70
2018-10-07T20:59:53.837Z,102232.56
2018-10-07T21:02:59.519Z,102236.38
2018-10-07T21:06:05.097Z,102237.73
2018-10-07T21:09:11.997Z,102238.66
2018-10-07T21:12:17.365Z,102238.70
2018-10-07T21:15:22.798Z,102235.41
2018-10-07T21:18:28.176Z,102232.63
2018-10-07T21:21:33.590Z,102227.48
2018-10-07T21:24:39.031Z,102227.50
2018-10-07T21:27:44.467Z,102216.27
2018-10-07T21:30:49.856Z,102218.39
2018-10-07T21:33:55.380Z,102213.64
2018-10-07T21:37:00.795Z,102219.41
2018-10-07T21:40:06.275Z,102211.77
2018-10-07T21:43:11.786Z,102203.90
2018-10-07T21:46:17.183Z,102209.09
2018-10-07T21:49:22.594Z,102199.67
2018-10-07T21:52:27.999Z,102198.75
2018-10-07T21:55:33.626Z,102197.92
2018-10-07T21:58:39.004Z,102196.16
2018-10-07T22:01:44.410Z,102191.43
2018-10-07T22:04:49.862Z,102203.59
2018-10-07T22:07:55.267Z,102198.93
2018-10-07T22:11:01.029Z,102195.84
2018-10-07T22:14:06.525Z,102196.64
2018-10-07T22:17:11.934Z,102198.75
2018-10-07T22:20:17.302Z,102204.88
2018-10-07T22:23:22.774Z,102209.20
2018-10-07T22:26:28.194Z,102215.63
2018-10-07T22:29:33.794Z,102203.49
2018-10-07T22:32:39.191Z,102212.15
2018-10-07T22:35:44.610Z,102214.27
2018-10-07T22:38:50.082Z,102222.50
2018-10-07T22:41:55.474Z,102226.49
2018-10-07T22:45:00.867Z,102226.48
2018-10-07T22:48:06.445Z,102227.78
2018-10-07T22:51:11.822Z,102227.78
2018-10-07T22:54:17.258Z,102219.42
2018-10-07T22:57:22.979Z,102219.18
2018-10-07T23:00:28.334Z,102219.69
2018-10-07T23:03:34.002Z,102223.03
2018-10-07T23:06:39.376Z,102225.82
2018-10-07T23:09:44.728Z,102227.81
2018-10-07T23:12:50.216Z,102219.98
2018-10-07T23:15:55.575Z,102220.77
2018-10-07T23:19:00.954Z,102224.00
2018-10-07T23:22:07.118Z,102227.88
2018-10-07T23:25:12.522Z,102214.78
2018-10-07T23:28:17.923Z,102219.96
2018-10-07T23:31:23.307Z,102215.36
2018-10-07T23:34:28.784Z,102212.78
2018-10-07T23:37:34.223Z,102225.35
2018-10-07T23:40:39.774Z,102215.77
2018-10-07T23:43:45.358Z,102225.23
2018-10-07T23:46:50.710Z,102227.30
2018-10-07T23:49:56.081Z,102220.81
2018-10-07T23:53:01.719Z,102220.56
2018-10-07T23:56:07.779Z,102219.64
2018-10-07T23:59:13.158Z,102226.47
